sensor_id;sensor_type;location;lat;lon;timestamp;temperature;humidity
70074;DHT22;57445;51.058;3.698;2023-02-21T00:01:12;9.80;99.90
70074;DHT22;57445;51.058;3.698;2023-02-21T00:04:02;9.80;99.90
70074;DHT22;57445;51.058;3.698;2023-02-21T00:06:53;10.00;99.90
70074;DHT22;57445;51.058;3.698;2023-02-21T00:09:43;9.90;99.90
70074;DHT22;57445;51.058;3.698;2023-02-21T00:12:33;10.00;99.90
70074;DHT22;57445;51.058;3.698;2023-02-21T00:15:25;9.80;99.90
70074;DHT22;57445;51.058;3.698;2023-02-21T00:18:14;10.10;99.90
70074;DHT22;57445;51.058;3.698;2023-02-21T00:20:59;10.40;99.90
70074;DHT22;57445;51.058;3.698;2023-02-21T00:23:45;10.20;99.90
70074;DHT22;57445;51.058;3.698;2023-02-21T00:26:30;10.00;99.90
70074;DHT22;57445;51.058;3.698;2023-02-21T00:29:20;10.10;99.90
70074;DHT22;57445;51.058;3.698;2023-02-21T00:32:05;10.00;99.90
70074;DHT22;57445;51.058;3.698;2023-02-21T00:34:54;10.40;99.90
70074;DHT22;57445;51.058;3.698;2023-02-21T00:37:43;10.30;99.90
70074;DHT22;57445;51.058;3.698;2023-02-21T00:40:34;10.40;99.90
70074;DHT22;57445;51.058;3.698;2023-02-21T00:43:27;10.00;99.90
70074;DHT22;57445;51.058;3.698;2023-02-21T00:46:12;9.80;99.90
70074;DHT22;57445;51.058;3.698;2023-02-21T00:48:58;9.80;99.90
70074;DHT22;57445;51.058;3.698;2023-02-21T00:51:47;9.80;99.90
70074;DHT22;57445;51.058;3.698;2023-02-21T00:54:37;9.90;99.90
70074;DHT22;57445;51.058;3.698;2023-02-21T00:57:23;10.10;99.90
70074;DHT22;57445;51.058;3.698;2023-02-21T01:00:12;10.10;99.90
70074;DHT22;57445;51.058;3.698;2023-02-21T01:02:57;10.20;99.90
70074;DHT22;57445;51.058;3.698;2023-02-21T01:05:42;10.40;99.90
70074;DHT22;57445;51.058;3.698;2023-02-21T01:08:32;10.50;99.90
70074;DHT22;57445;51.058;3.698;2023-02-21T01:11:21;10.20;99.90
70074;DHT22;57445;51.058;3.698;2023-02-21T01:14:07;10.20;99.90
70074;DHT22;57445;51.058;3.698;2023-02-21T01:16:52;10.20;99.90
70074;DHT22;57445;51.058;3.698;2023-02-21T01:19:37;10.60;99.90
70074;DHT22;57445;51.058;3.698;2023-02-21T01:22:28;10.40;99.90
70074;DHT22;57445;51.058;3.698;2023-02-21T01:25:18;10.30;99.90
70074;DHT22;57445;51.058;3.698;2023-02-21T01:28:08;10.20;99.90
70074;DHT22;57445;51.058;3.698;2023-02-21T01:30:55;10.20;99.90
70074;DHT22;57445;51.058;3.698;2023-02-21T01:33:44;10.20;99.90
70074;DHT22;57445;51.058;3.698;2023-02-21T01:36:29;10.40;99.90
70074;DHT22;57445;51.058;3.698;2023-02-21T01:39:18;10.20;99.90
70074;DHT22;57445;51.058;3.698;2023-02-21T01:42:08;10.10;99.90
70074;DHT22;57445;51.058;3.698;2023-02-21T01:48:19;10.10;99.90
70074;DHT22;57445;51.058;3.698;2023-02-21T01:51:05;10.00;99.90
70074;DHT22;57445;51.058;3.698;2023-02-21T01:53:56;9.70;99.90
70074;DHT22;57445;51.058;3.698;2023-02-21T01:56:46;9.70;99.90
70074;DHT22;57445;51.058;3.698;2023-02-21T01:59:30;9.90;99.90
70074;DHT22;57445;51.058;3.698;2023-02-21T02:02:23;10.30;99.90
70074;DHT22;57445;51.058;3.698;2023-02-21T02:05:15;10.30;99.90
70074;DHT22;57445;51.058;3.698;2023-02-21T02:08:08;10.30;99.90
70074;DHT22;57445;51.058;3.698;2023-02-21T02:11:00;10.20;99.90
70074;DHT22;57445;51.058;3.698;2023-02-21T02:13:51;10.10;99.90
70074;DHT22;57445;51.058;3.698;2023-02-21T02:16:28;10.40;99.90
70074;DHT22;57445;51.058;3.698;2023-02-21T02:19:11;10.70;99.90
70074;DHT22;57445;51.058;3.698;2023-02-21T02:24:44;10.40;99.90
70074;DHT22;57445;51.058;3.698;2023-02-21T02:30:33;10.00;99.90
70074;DHT22;57445;51.058;3.698;2023-02-21T02:33:25;10.10;99.90
70074;DHT22;57445;51.058;3.698;2023-02-21T02:35:58;10.10;99.90
70074;DHT22;57445;51.058;3.698;2023-02-21T02:38:33;10.70;99.90
70074;DHT22;57445;51.058;3.698;2023-02-21T02:41:09;10.50;99.90
70074;DHT22;57445;51.058;3.698;2023-02-21T02:43:44;10.50;99.90
70074;DHT22;57445;51.058;3.698;2023-02-21T02:46:17;10.40;99.90
70074;DHT22;57445;51.058;3.698;2023-02-21T02:48:52;10.50;99.90
70074;DHT22;57445;51.058;3.698;2023-02-21T02:51:28;10.30;99.90
70074;DHT22;57445;51.058;3.698;2023-02-21T02:53:56;10.40;99.90
70074;DHT22;57445;51.058;3.698;2023-02-21T02:56:28;10.20;99.90
70074;DHT22;57445;51.058;3.698;2023-02-21T02:58:57;10.10;99.90
70074;DHT22;57445;51.058;3.698;2023-02-21T03:04:19;10.30;99.90
70074;DHT22;57445;51.058;3.698;2023-02-21T03:06:56;10.00;99.90
70074;DHT22;57445;51.058;3.698;2023-02-21T03:09:36;10.10;99.90
70074;DHT22;57445;51.058;3.698;2023-02-21T03:12:07;10.10;99.90
70074;DHT22;57445;51.058;3.698;2023-02-21T03:14:36;9.80;99.90
70074;DHT22;57445;51.058;3.698;2023-02-21T03:17:10;9.70;99.90
70074;DHT22;57445;51.058;3.698;2023-02-21T03:19:44;9.50;99.90
70074;DHT22;57445;51.058;3.698;2023-02-21T03:22:15;9.60;99.90
70074;DHT22;57445;51.058;3.698;2023-02-21T03:24:49;9.70;99.90
70074;DHT22;57445;51.058;3.698;2023-02-21T03:27:22;10.00;99.90
70074;DHT22;57445;51.058;3.698;2023-02-21T03:29:55;10.20;99.90
70074;DHT22;57445;51.058;3.698;2023-02-21T03:32:29;10.30;99.90
70074;DHT22;57445;51.058;3.698;2023-02-21T03:35:01;10.30;99.90
70074;DHT22;57445;51.058;3.698;2023-02-21T03:37:36;10.50;99.90
70074;DHT22;57445;51.058;3.698;2023-02-21T03:40:09;11.00;99.90
70074;DHT22;57445;51.058;3.698;2023-02-21T03:42:41;10.70;99.90
70074;DHT22;57445;51.058;3.698;2023-02-21T03:45:13;10.60;99.90
70074;DHT22;57445;51.058;3.698;2023-02-21T03:47:45;10.50;99.90
70074;DHT22;57445;51.058;3.698;2023-02-21T03:50:21;10.40;99.90
70074;DHT22;57445;51.058;3.698;2023-02-21T03:52:54;10.20;99.90
70074;DHT22;57445;51.058;3.698;2023-02-21T03:55:26;10.30;99.90
70074;DHT22;57445;51.058;3.698;2023-02-21T03:57:58;10.30;99.90
70074;DHT22;57445;51.058;3.698;2023-02-21T04:00:30;10.30;99.90
70074;DHT22;57445;51.058;3.698;2023-02-21T04:03:02;10.60;99.90
70074;DHT22;57445;51.058;3.698;2023-02-21T04:05:34;10.40;99.90
70074;DHT22;57445;51.058;3.698;2023-02-21T04:08:08;10.60;99.90
70074;DHT22;57445;51.058;3.698;2023-02-21T04:10:40;10.40;99.90
70074;DHT22;57445;51.058;3.698;2023-02-21T04:13:12;10.50;99.90
70074;DHT22;57445;51.058;3.698;2023-02-21T04:15:39;10.30;99.90
70074;DHT22;57445;51.058;3.698;2023-02-21T04:18:11;10.50;99.90
70074;DHT22;57445;51.058;3.698;2023-02-21T04:20:46;10.40;99.90
70074;DHT22;57445;51.058;3.698;2023-02-21T04:23:21;10.40;99.90
70074;DHT22;57445;51.058;3.698;2023-02-21T04:25:48;10.30;99.90
70074;DHT22;57445;51.058;3.698;2023-02-21T04:28:20;10.20;99.90
70074;DHT22;57445;51.058;3.698;2023-02-21T04:30:48;10.00;99.90
70074;DHT22;57445;51.058;3.698;2023-02-21T04:33:19;10.10;99.90
70074;DHT22;57445;51.058;3.698;2023-02-21T04:35:46;10.10;99.90
70074;DHT22;57445;51.058;3.698;2023-02-21T04:38:15;10.10;99.90
70074;DHT22;57445;51.058;3.698;2023-02-21T04:40:48;10.20;99.90
70074;DHT22;57445;51.058;3.698;2023-02-21T04:43:20;10.30;99.90
70074;DHT22;57445;51.058;3.698;2023-02-21T04:45:48;10.40;99.90
70074;DHT22;57445;51.058;3.698;2023-02-21T04:48:15;10.80;99.90
70074;DHT22;57445;51.058;3.698;2023-02-21T04:50:47;11.00;99.90
70074;DHT22;57445;51.058;3.698;2023-02-21T04:53:19;11.00;99.90
70074;DHT22;57445;51.058;3.698;2023-02-21T04:55:52;10.80;99.90
70074;DHT22;57445;51.058;3.698;2023-02-21T04:58:20;10.50;99.90
70074;DHT22;57445;51.058;3.698;2023-02-21T05:00:47;10.50;99.90
70074;DHT22;57445;51.058;3.698;2023-02-21T05:03:15;10.60;99.90
70074;DHT22;57445;51.058;3.698;2023-02-21T05:05:47;10.70;99.90
70074;DHT22;57445;51.058;3.698;2023-02-21T05:08:15;10.60;99.90
70074;DHT22;57445;51.058;3.698;2023-02-21T05:10:42;10.70;99.90
70074;DHT22;57445;51.058;3.698;2023-02-21T05:13:17;10.80;99.90
70074;DHT22;57445;51.058;3.698;2023-02-21T05:15:44;10.90;99.90
70074;DHT22;57445;51.058;3.698;2023-02-21T05:18:12;10.80;99.90
70074;DHT22;57445;51.058;3.698;2023-02-21T05:20:39;10.40;99.90
70074;DHT22;57445;51.058;3.698;2023-02-21T05:23:11;10.20;99.90
70074;DHT22;57445;51.058;3.698;2023-02-21T05:25:44;10.40;99.90
70074;DHT22;57445;51.058;3.698;2023-02-21T05:28:17;10.60;99.90
70074;DHT22;57445;51.058;3.698;2023-02-21T05:30:44;10.80;99.90
70074;DHT22;57445;51.058;3.698;2023-02-21T05:33:16;10.80;99.90
70074;DHT22;57445;51.058;3.698;2023-02-21T05:35:48;11.00;99.90
70074;DHT22;57445;51.058;3.698;2023-02-21T05:38:21;11.00;99.90
70074;DHT22;57445;51.058;3.698;2023-02-21T05:40:49;11.10;99.90
70074;DHT22;57445;51.058;3.698;2023-02-21T05:43:22;11.10;99.90
70074;DHT22;57445;51.058;3.698;2023-02-21T05:45:50;11.20;99.90
70074;DHT22;57445;51.058;3.698;2023-02-21T05:48:17;11.00;99.90
70074;DHT22;57445;51.058;3.698;2023-02-21T05:50:49;11.10;99.90
70074;DHT22;57445;51.058;3.698;2023-02-21T05:53:21;11.30;99.90
70074;DHT22;57445;51.058;3.698;2023-02-21T05:55:49;11.30;99.90
70074;DHT22;57445;51.058;3.698;2023-02-21T05:58:21;11.30;99.90
70074;DHT22;57445;51.058;3.698;2023-02-21T06:00:49;11.40;99.90
70074;DHT22;57445;51.058;3.698;2023-02-21T06:03:22;11.30;99.90
70074;DHT22;57445;51.058;3.698;2023-02-21T06:05:54;11.30;99.90
70074;DHT22;57445;51.058;3.698;2023-02-21T06:08:25;11.30;99.90
70074;DHT22;57445;51.058;3.698;2023-02-21T06:10:57;11.40;99.90
70074;DHT22;57445;51.058;3.698;2023-02-21T06:13:25;11.50;99.90
70074;DHT22;57445;51.058;3.698;2023-02-21T06:15:59;11.30;99.90
70074;DHT22;57445;51.058;3.698;2023-02-21T06:18:31;11.30;99.90
70074;DHT22;57445;51.058;3.698;2023-02-21T06:20:59;10.90;99.90
70074;DHT22;57445;51.058;3.698;2023-02-21T06:23:31;11.00;99.90
70074;DHT22;57445;51.058;3.698;2023-02-21T06:26:04;10.90;99.90
70074;DHT22;57445;51.058;3.698;2023-02-21T06:28:36;10.70;99.90
70074;DHT22;57445;51.058;3.698;2023-02-21T06:31:09;11.00;99.90
70074;DHT22;57445;51.058;3.698;2023-02-21T06:33:41;11.00;99.90
70074;DHT22;57445;51.058;3.698;2023-02-21T06:36:15;11.10;99.90
70074;DHT22;57445;51.058;3.698;2023-02-21T06:38:43;10.90;99.90
70074;DHT22;57445;51.058;3.698;2023-02-21T06:41:10;10.80;99.90
70074;DHT22;57445;51.058;3.698;2023-02-21T06:43:44;10.70;99.90
70074;DHT22;57445;51.058;3.698;2023-02-21T06:46:15;10.50;99.90
70074;DHT22;57445;51.058;3.698;2023-02-21T06:48:43;10.60;99.90
70074;DHT22;57445;51.058;3.698;2023-02-21T06:51:11;10.60;99.90
70074;DHT22;57445;51.058;3.698;2023-02-21T06:53:39;10.70;99.90
70074;DHT22;57445;51.058;3.698;2023-02-21T06:56:11;10.70;99.90
70074;DHT22;57445;51.058;3.698;2023-02-21T06:58:43;10.80;99.90
70074;DHT22;57445;51.058;3.698;2023-02-21T07:01:18;10.80;99.90
70074;DHT22;57445;51.058;3.698;2023-02-21T07:03:45;11.00;99.90
70074;DHT22;57445;51.058;3.698;2023-02-21T07:06:19;11.00;99.90
70074;DHT22;57445;51.058;3.698;2023-02-21T07:08:48;11.20;99.90
70074;DHT22;57445;51.058;3.698;2023-02-21T07:11:20;11.20;99.90
70074;DHT22;57445;51.058;3.698;2023-02-21T07:13:55;11.30;99.90
70074;DHT22;57445;51.058;3.698;2023-02-21T07:16:30;11.10;99.90
70074;DHT22;57445;51.058;3.698;2023-02-21T07:19:02;11.20;99.90
70074;DHT22;57445;51.058;3.698;2023-02-21T07:21:34;11.20;99.90
70074;DHT22;57445;51.058;3.698;2023-02-21T07:24:06;11.20;99.90
70074;DHT22;57445;51.058;3.698;2023-02-21T07:26:33;11.10;99.90
70074;DHT22;57445;51.058;3.698;2023-02-21T07:29:07;11.10;99.90
70074;DHT22;57445;51.058;3.698;2023-02-21T07:31:40;11.10;99.90
70074;DHT22;57445;51.058;3.698;2023-02-21T07:34:12;10.90;99.90
70074;DHT22;57445;51.058;3.698;2023-02-21T07:36:45;11.10;99.90
70074;DHT22;57445;51.058;3.698;2023-02-21T07:39:12;11.00;99.90
70074;DHT22;57445;51.058;3.698;2023-02-21T07:41:39;10.70;99.90
70074;DHT22;57445;51.058;3.698;2023-02-21T07:44:12;10.50;99.90
70074;DHT22;57445;51.058;3.698;2023-02-21T07:46:45;10.40;99.90
70074;DHT22;57445;51.058;3.698;2023-02-21T07:49:13;10.70;99.90
70074;DHT22;57445;51.058;3.698;2023-02-21T07:51:43;10.40;99.90
70074;DHT22;57445;51.058;3.698;2023-02-21T07:54:15;10.70;99.90
70074;DHT22;57445;51.058;3.698;2023-02-21T07:56:47;10.70;99.90
70074;DHT22;57445;51.058;3.698;2023-02-21T07:59:19;10.90;99.90
70074;DHT22;57445;51.058;3.698;2023-02-21T08:01:48;10.60;99.90
70074;DHT22;57445;51.058;3.698;2023-02-21T08:04:16;10.30;99.90
70074;DHT22;57445;51.058;3.698;2023-02-21T08:06:46;10.10;99.90
70074;DHT22;57445;51.058;3.698;2023-02-21T08:09:14;10.30;99.90
70074;DHT22;57445;51.058;3.698;2023-02-21T08:11:42;10.70;99.90
70074;DHT22;57445;51.058;3.698;2023-02-21T08:14:16;11.00;99.90
70074;DHT22;57445;51.058;3.698;2023-02-21T08:16:44;11.30;99.90
70074;DHT22;57445;51.058;3.698;2023-02-21T08:19:13;11.20;99.90
70074;DHT22;57445;51.058;3.698;2023-02-21T08:21:45;11.00;99.90
70074;DHT22;57445;51.058;3.698;2023-02-21T08:24:17;11.10;99.90
70074;DHT22;57445;51.058;3.698;2023-02-21T08:26:50;11.10;99.90
70074;DHT22;57445;51.058;3.698;2023-02-21T08:29:22;10.70;99.90
70074;DHT22;57445;51.058;3.698;2023-02-21T08:31:49;10.70;99.90
70074;DHT22;57445;51.058;3.698;2023-02-21T08:34:23;10.70;99.90
70074;DHT22;57445;51.058;3.698;2023-02-21T08:36:50;10.40;99.90
70074;DHT22;57445;51.058;3.698;2023-02-21T08:39:18;10.50;99.90
70074;DHT22;57445;51.058;3.698;2023-02-21T08:41:50;10.30;99.90
70074;DHT22;57445;51.058;3.698;2023-02-21T08:44:18;10.40;99.90
70074;DHT22;57445;51.058;3.698;2023-02-21T08:46:47;10.50;99.90
70074;DHT22;57445;51.058;3.698;2023-02-21T08:49:20;10.60;99.90
70074;DHT22;57445;51.058;3.698;2023-02-21T08:51:49;10.60;99.90
70074;DHT22;57445;51.058;3.698;2023-02-21T08:54:22;10.90;99.90
70074;DHT22;57445;51.058;3.698;2023-02-21T08:56:49;10.90;99.90
70074;DHT22;57445;51.058;3.698;2023-02-21T08:59:21;10.80;99.90
70074;DHT22;57445;51.058;3.698;2023-02-21T09:01:53;11.00;99.90
70074;DHT22;57445;51.058;3.698;2023-02-21T09:04:25;11.00;99.90
70074;DHT22;57445;51.058;3.698;2023-02-21T09:06:59;11.00;99.90
70074;DHT22;57445;51.058;3.698;2023-02-21T09:09:30;10.70;99.90
70074;DHT22;57445;51.058;3.698;2023-02-21T09:12:03;10.70;99.90
70074;DHT22;57445;51.058;3.698;2023-02-21T09:14:38;10.40;99.90
70074;DHT22;57445;51.058;3.698;2023-02-21T09:17:12;10.40;99.90
70074;DHT22;57445;51.058;3.698;2023-02-21T09:19:44;10.80;99.90
70074;DHT22;57445;51.058;3.698;2023-02-21T09:22:17;11.10;99.90
70074;DHT22;57445;51.058;3.698;2023-02-21T09:24:49;11.10;99.90
70074;DHT22;57445;51.058;3.698;2023-02-21T09:27:21;11.10;99.90
70074;DHT22;57445;51.058;3.698;2023-02-21T09:30:02;11.20;99.90
70074;DHT22;57445;51.058;3.698;2023-02-21T09:32:34;11.40;99.90
70074;DHT22;57445;51.058;3.698;2023-02-21T09:35:09;11.70;99.90
70074;DHT22;57445;51.058;3.698;2023-02-21T09:37:44;11.90;99.90
70074;DHT22;57445;51.058;3.698;2023-02-21T09:40:14;11.70;99.90
70074;DHT22;57445;51.058;3.698;2023-02-21T09:42:44;11.40;99.90
70074;DHT22;57445;51.058;3.698;2023-02-21T09:45:17;11.20;99.90
70074;DHT22;57445;51.058;3.698;2023-02-21T09:47:52;11.10;99.90
70074;DHT22;57445;51.058;3.698;2023-02-21T09:50:26;11.30;99.90
70074;DHT22;57445;51.058;3.698;2023-02-21T09:53:01;11.50;99.90
70074;DHT22;57445;51.058;3.698;2023-02-21T09:55:34;11.50;99.90
70074;DHT22;57445;51.058;3.698;2023-02-21T09:58:09;11.60;99.90
70074;DHT22;57445;51.058;3.698;2023-02-21T10:00:40;11.90;99.90
70074;DHT22;57445;51.058;3.698;2023-02-21T10:03:15;12.00;99.90
70074;DHT22;57445;51.058;3.698;2023-02-21T10:05:51;12.00;99.90
70074;DHT22;57445;51.058;3.698;2023-02-21T10:08:28;11.80;99.90
70074;DHT22;57445;51.058;3.698;2023-02-21T10:11:12;11.70;99.90
70074;DHT22;57445;51.058;3.698;2023-02-21T10:13:48;12.10;99.90
70074;DHT22;57445;51.058;3.698;2023-02-21T10:16:25;12.00;99.90
70074;DHT22;57445;51.058;3.698;2023-02-21T10:19:01;12.00;99.90
70074;DHT22;57445;51.058;3.698;2023-02-21T10:21:35;11.70;99.90
70074;DHT22;57445;51.058;3.698;2023-02-21T10:24:09;11.80;99.90
70074;DHT22;57445;51.058;3.698;2023-02-21T10:26:43;11.40;99.90
70074;DHT22;57445;51.058;3.698;2023-02-21T10:29:20;11.30;99.90
70074;DHT22;57445;51.058;3.698;2023-02-21T10:31:54;11.60;99.90
70074;DHT22;57445;51.058;3.698;2023-02-21T10:34:28;11.90;99.90
70074;DHT22;57445;51.058;3.698;2023-02-21T10:37:01;11.80;99.90
70074;DHT22;57445;51.058;3.698;2023-02-21T10:39:38;11.70;99.90
70074;DHT22;57445;51.058;3.698;2023-02-21T10:42:11;11.50;99.90
70074;DHT22;57445;51.058;3.698;2023-02-21T10:44:40;11.40;99.90
70074;DHT22;57445;51.058;3.698;2023-02-21T10:47:13;11.60;99.90
70074;DHT22;57445;51.058;3.698;2023-02-21T10:49:43;11.50;99.90
70074;DHT22;57445;51.058;3.698;2023-02-21T10:52:17;11.60;99.90
70074;DHT22;57445;51.058;3.698;2023-02-21T10:55:02;11.60;99.90
70074;DHT22;57445;51.058;3.698;2023-02-21T10:57:38;11.80;99.90
70074;DHT22;57445;51.058;3.698;2023-02-21T11:00:18;11.30;99.90
70074;DHT22;57445;51.058;3.698;2023-02-21T11:02:53;11.40;99.90
70074;DHT22;57445;51.058;3.698;2023-02-21T11:05:25;11.10;99.90
70074;DHT22;57445;51.058;3.698;2023-02-21T11:07:58;11.40;99.90
70074;DHT22;57445;51.058;3.698;2023-02-21T11:10:32;11.60;99.90
70074;DHT22;57445;51.058;3.698;2023-02-21T11:13:01;11.60;99.90
70074;DHT22;57445;51.058;3.698;2023-02-21T11:15:33;11.50;99.90
70074;DHT22;57445;51.058;3.698;2023-02-21T11:18:10;11.80;99.50
70074;DHT22;57445;51.058;3.698;2023-02-21T11:20:39;12.00;99.80
70074;DHT22;57445;51.058;3.698;2023-02-21T11:23:16;12.30;98.80
70074;DHT22;57445;51.058;3.698;2023-02-21T11:25:50;12.50;98.50
70074;DHT22;57445;51.058;3.698;2023-02-21T11:28:23;12.80;97.70
70074;DHT22;57445;51.058;3.698;2023-02-21T11:31:12;12.70;97.50
70074;DHT22;57445;51.058;3.698;2023-02-21T11:33:41;12.90;97.00
70074;DHT22;57445;51.058;3.698;2023-02-21T11:36:15;12.10;97.80
70074;DHT22;57445;51.058;3.698;2023-02-21T11:38:44;11.70;99.00
70074;DHT22;57445;51.058;3.698;2023-02-21T11:41:21;11.60;99.40
70074;DHT22;57445;51.058;3.698;2023-02-21T11:43:54;11.70;99.20
70074;DHT22;57445;51.058;3.698;2023-02-21T11:46:31;11.70;99.10
70074;DHT22;57445;51.058;3.698;2023-02-21T11:49:06;11.50;99.60
70074;DHT22;57445;51.058;3.698;2023-02-21T11:51:40;11.80;99.20
70074;DHT22;57445;51.058;3.698;2023-02-21T11:54:14;11.90;99.20
70074;DHT22;57445;51.058;3.698;2023-02-21T11:56:46;12.20;98.90
70074;DHT22;57445;51.058;3.698;2023-02-21T11:59:22;12.60;98.20
70074;DHT22;57445;51.058;3.698;2023-02-21T12:01:59;12.50;97.60
70074;DHT22;57445;51.058;3.698;2023-02-21T12:04:41;12.60;97.90
70074;DHT22;57445;51.058;3.698;2023-02-21T12:07:17;12.40;97.90
70074;DHT22;57445;51.058;3.698;2023-02-21T12:09:54;12.40;98.20
70074;DHT22;57445;51.058;3.698;2023-02-21T12:12:32;12.50;98.20
70074;DHT22;57445;51.058;3.698;2023-02-21T12:15:12;13.10;97.30
70074;DHT22;57445;51.058;3.698;2023-02-21T12:23:43;12.30;98.40
70074;DHT22;57445;51.058;3.698;2023-02-21T12:26:20;12.80;97.50
70074;DHT22;57445;51.058;3.698;2023-02-21T12:29:00;13.10;96.70
70074;DHT22;57445;51.058;3.698;2023-02-21T12:31:38;13.00;96.90
70074;DHT22;57445;51.058;3.698;2023-02-21T12:34:17;12.60;97.50
70074;DHT22;57445;51.058;3.698;2023-02-21T12:39:37;11.90;98.60
70074;DHT22;57445;51.058;3.698;2023-02-21T12:42:20;11.80;99.10
70074;DHT22;57445;51.058;3.698;2023-02-21T12:45:01;11.90;99.20
70074;DHT22;57445;51.058;3.698;2023-02-21T12:47:31;11.90;99.20
70074;DHT22;57445;51.058;3.698;2023-02-21T12:50:00;12.30;98.30
70074;DHT22;57445;51.058;3.698;2023-02-21T12:52:35;12.80;97.60
70074;DHT22;57445;51.058;3.698;2023-02-21T12:55:11;12.80;97.40
70074;DHT22;57445;51.058;3.698;2023-02-21T12:57:46;12.50;97.70
70074;DHT22;57445;51.058;3.698;2023-02-21T13:00:17;12.40;97.90
70074;DHT22;57445;51.058;3.698;2023-02-21T13:02:57;12.60;97.40
70074;DHT22;57445;51.058;3.698;2023-02-21T13:05:32;12.70;97.60
70074;DHT22;57445;51.058;3.698;2023-02-21T13:08:04;12.30;97.80
70074;DHT22;57445;51.058;3.698;2023-02-21T13:10:33;12.70;97.40
70074;DHT22;57445;51.058;3.698;2023-02-21T13:13:08;13.30;96.10
70074;DHT22;57445;51.058;3.698;2023-02-21T13:15:43;13.60;96.10
70074;DHT22;57445;51.058;3.698;2023-02-21T13:18:18;13.70;95.40
70074;DHT22;57445;51.058;3.698;2023-02-21T13:20:51;13.00;95.90
70074;DHT22;57445;51.058;3.698;2023-02-21T13:26:19;12.70;96.80
70074;DHT22;57445;51.058;3.698;2023-02-21T13:28:50;12.60;96.80
70074;DHT22;57445;51.058;3.698;2023-02-21T13:31:20;12.00;97.90
70074;DHT22;57445;51.058;3.698;2023-02-21T13:33:53;12.30;98.50
70074;DHT22;57445;51.058;3.698;2023-02-21T13:36:27;12.30;97.80
70074;DHT22;57445;51.058;3.698;2023-02-21T13:38:56;12.30;97.90
70074;DHT22;57445;51.058;3.698;2023-02-21T13:41:29;12.30;97.60
70074;DHT22;57445;51.058;3.698;2023-02-21T13:44:00;12.30;98.00
70074;DHT22;57445;51.058;3.698;2023-02-21T13:49:39;12.20;97.60
70074;DHT22;57445;51.058;3.698;2023-02-21T13:52:22;12.30;97.50
70074;DHT22;57445;51.058;3.698;2023-02-21T13:57:45;12.10;98.20
70074;DHT22;57445;51.058;3.698;2023-02-21T14:03:02;13.30;96.00
70074;DHT22;57445;51.058;3.698;2023-02-21T14:08:34;12.30;97.50
70074;DHT22;57445;51.058;3.698;2023-02-21T14:11:10;12.00;97.90
70074;DHT22;57445;51.058;3.698;2023-02-21T14:13:45;12.00;98.40
70074;DHT22;57445;51.058;3.698;2023-02-21T14:16:15;12.00;98.40
70074;DHT22;57445;51.058;3.698;2023-02-21T14:18:50;11.90;98.60
70074;DHT22;57445;51.058;3.698;2023-02-21T14:21:24;12.00;98.50
70074;DHT22;57445;51.058;3.698;2023-02-21T14:23:58;12.10;98.40
70074;DHT22;57445;51.058;3.698;2023-02-21T14:26:35;12.50;98.10
70074;DHT22;57445;51.058;3.698;2023-02-21T14:29:12;12.90;97.50
70074;DHT22;57445;51.058;3.698;2023-02-21T14:31:51;12.90;97.10
70074;DHT22;57445;51.058;3.698;2023-02-21T14:34:22;12.70;97.20
70074;DHT22;57445;51.058;3.698;2023-02-21T14:36:52;12.70;97.30
70074;DHT22;57445;51.058;3.698;2023-02-21T14:39:22;12.80;97.60
70074;DHT22;57445;51.058;3.698;2023-02-21T14:41:55;13.30;96.70
70074;DHT22;57445;51.058;3.698;2023-02-21T14:44:33;13.50;96.30
70074;DHT22;57445;51.058;3.698;2023-02-21T14:47:10;13.80;95.90
70074;DHT22;57445;51.058;3.698;2023-02-21T14:49:47;14.00;95.30
70074;DHT22;57445;51.058;3.698;2023-02-21T15:00:57;13.80;95.60
70074;DHT22;57445;51.058;3.698;2023-02-21T15:03:35;13.90;95.40
70074;DHT22;57445;51.058;3.698;2023-02-21T15:06:09;13.90;95.50
70074;DHT22;57445;51.058;3.698;2023-02-21T15:08:41;14.00;95.40
70074;DHT22;57445;51.058;3.698;2023-02-21T15:11:16;13.90;95.40
70074;DHT22;57445;51.058;3.698;2023-02-21T15:16:35;13.70;95.50
70074;DHT22;57445;51.058;3.698;2023-02-21T15:19:14;13.40;96.00
70074;DHT22;57445;51.058;3.698;2023-02-21T15:21:47;13.40;96.00
70074;DHT22;57445;51.058;3.698;2023-02-21T15:24:15;13.10;96.60
70074;DHT22;57445;51.058;3.698;2023-02-21T15:26:47;13.10;96.50
70074;DHT22;57445;51.058;3.698;2023-02-21T15:29:19;13.20;96.40
70074;DHT22;57445;51.058;3.698;2023-02-21T15:31:48;13.40;96.20
70074;DHT22;57445;51.058;3.698;2023-02-21T15:34:22;13.30;96.10
70074;DHT22;57445;51.058;3.698;2023-02-21T15:37:00;13.20;96.40
70074;DHT22;57445;51.058;3.698;2023-02-21T15:39:34;13.50;95.60
70074;DHT22;57445;51.058;3.698;2023-02-21T15:42:07;13.40;95.80
70074;DHT22;57445;51.058;3.698;2023-02-21T15:44:41;13.20;96.10
70074;DHT22;57445;51.058;3.698;2023-02-21T15:47:17;13.10;96.30
70074;DHT22;57445;51.058;3.698;2023-02-21T15:49:52;13.20;96.10
70074;DHT22;57445;51.058;3.698;2023-02-21T15:52:27;13.20;96.20
70074;DHT22;57445;51.058;3.698;2023-02-21T15:55:13;13.20;96.40
70074;DHT22;57445;51.058;3.698;2023-02-21T15:57:45;12.90;96.50
70074;DHT22;57445;51.058;3.698;2023-02-21T16:00:22;12.70;96.90
70074;DHT22;57445;51.058;3.698;2023-02-21T16:05:45;12.70;97.00
70074;DHT22;57445;51.058;3.698;2023-02-21T16:08:14;12.70;97.40
70074;DHT22;57445;51.058;3.698;2023-02-21T16:10:46;12.60;97.20
70074;DHT22;57445;51.058;3.698;2023-02-21T16:13:18;12.50;97.30
70074;DHT22;57445;51.058;3.698;2023-02-21T16:15:50;12.10;97.90
70074;DHT22;57445;51.058;3.698;2023-02-21T16:18:18;12.40;97.90
70074;DHT22;57445;51.058;3.698;2023-02-21T16:20:47;12.60;97.30
70074;DHT22;57445;51.058;3.698;2023-02-21T16:23:29;12.50;97.50
70074;DHT22;57445;51.058;3.698;2023-02-21T16:26:17;12.40;97.50
70074;DHT22;57445;51.058;3.698;2023-02-21T16:28:50;11.80;98.40
70074;DHT22;57445;51.058;3.698;2023-02-21T16:31:22;11.80;99.10
70074;DHT22;57445;51.058;3.698;2023-02-21T16:33:50;12.10;98.20
70074;DHT22;57445;51.058;3.698;2023-02-21T16:36:24;12.30;97.80
70074;DHT22;57445;51.058;3.698;2023-02-21T16:38:52;12.30;97.70
70074;DHT22;57445;51.058;3.698;2023-02-21T16:41:20;12.40;97.60
70074;DHT22;57445;51.058;3.698;2023-02-21T16:43:48;12.40;97.90
70074;DHT22;57445;51.058;3.698;2023-02-21T16:46:22;12.00;98.20
70074;DHT22;57445;51.058;3.698;2023-02-21T16:48:54;12.10;98.60
70074;DHT22;57445;51.058;3.698;2023-02-21T16:51:21;11.90;98.80
70074;DHT22;57445;51.058;3.698;2023-02-21T16:53:51;12.00;98.50
70074;DHT22;57445;51.058;3.698;2023-02-21T16:56:22;11.80;98.70
70074;DHT22;57445;51.058;3.698;2023-02-21T16:58:50;12.00;99.00
70074;DHT22;57445;51.058;3.698;2023-02-21T17:01:25;12.10;98.30
70074;DHT22;57445;51.058;3.698;2023-02-21T17:03:58;12.20;98.10
70074;DHT22;57445;51.058;3.698;2023-02-21T17:06:31;11.80;98.30
70074;DHT22;57445;51.058;3.698;2023-02-21T17:09:06;11.90;98.50